createdAt,value
2022-09-25T00:00:36.874Z,100819.03
2022-09-25T00:03:03.712Z,100824.00
2022-09-25T00:05:30.122Z,100826.25
2022-09-25T00:07:56.468Z,100817.63
2022-09-25T00:10:25.207Z,100816.16
2022-09-25T00:12:51.820Z,100816.78
2022-09-25T00:15:18.131Z,100818.94
2022-09-25T00:17:44.453Z,100814.66
2022-09-25T00:20:10.775Z,100806.78
2022-09-25T00:22:37.104Z,100815.41
2022-09-25T00:25:03.658Z,100803.06
2022-09-25T00:27:29.981Z,100806.28
2022-09-25T00:29:56.307Z,100807.00
2022-09-25T00:32:22.868Z,100794.00
2022-09-25T00:34:49.190Z,100799.00
2022-09-25T00:37:15.528Z,100795.28
2022-09-25T00:39:41.867Z,100798.16
2022-09-25T00:42:11.436Z,100800.28
2022-09-25T00:44:52.518Z,100800.28
2022-09-25T00:47:20.490Z,100796.06
2022-09-25T00:49:46.795Z,100793.81
2022-09-25T00:52:13.169Z,100791.56
2022-09-25T00:54:40.939Z,100790.22
2022-09-25T00:57:08.155Z,100792.97
2022-09-25T00:59:36.030Z,100797.31
2022-09-25T01:02:02.416Z,100785.84
2022-09-25T01:04:28.877Z,100794.34
2022-09-25T01:06:55.344Z,100793.72
2022-09-25T01:09:21.729Z,100797.31
2022-09-25T01:11:48.053Z,100781.59
2022-09-25T01:14:17.314Z,100788.72
2022-09-25T01:16:47.348Z,100790.09
2022-09-25T01:19:31.589Z,100783.63
2022-09-25T01:22:05.024Z,100790.22
2022-09-25T01:24:50.353Z,100780.81
2022-09-25T01:27:20.019Z,100774.34
2022-09-25T01:30:05.647Z,100777.94
2022-09-25T01:32:33.611Z,100773.59
2022-09-25T01:34:59.842Z,100771.38
2022-09-25T01:37:26.825Z,100775.63
2022-09-25T01:40:05.698Z,100765.63
2022-09-25T01:42:34.932Z,100770.00
2022-09-25T01:45:03.007Z,100767.88
2022-09-25T01:47:29.465Z,100772.13
2022-09-25T01:49:56.808Z,100771.38
2022-09-25T01:52:25.264Z,100771.38
2022-09-25T01:54:53.071Z,100772.78
2022-09-25T01:57:20.737Z,100769.91
2022-09-25T01:59:49.247Z,100764.16
2022-09-25T02:02:19.173Z,100772.13
2022-09-25T02:05:00.274Z,100768.50
2022-09-25T02:07:28.030Z,100771.38
2022-09-25T02:10:02.942Z,100772.88
2022-09-25T02:12:34.275Z,100767.03
2022-09-25T02:15:05.791Z,100766.28
2022-09-25T02:17:58.988Z,100767.03
2022-09-25T02:20:34.400Z,100769.91
2022-09-25T02:23:08.768Z,100769.91
2022-09-25T02:25:37.323Z,100765.53
2022-09-25T02:28:03.793Z,100761.19
2022-09-25T02:30:30.231Z,100763.41
2022-09-25T02:32:58.058Z,100764.16
2022-09-25T02:35:25.019Z,100766.94
2022-09-25T02:37:51.726Z,100761.28
2022-09-25T02:40:18.056Z,100768.50
2022-09-25T02:42:50.832Z,100772.22
2022-09-25T02:45:35.608Z,100770.09
2022-09-25T02:48:19.054Z,100771.56
2022-09-25T02:50:51.340Z,100763.06
2022-09-25T02:53:36.202Z,100758.78
2022-09-25T02:56:25.106Z,100767.53
2022-09-25T02:58:52.499Z,100761.78
2022-09-25T03:01:18.980Z,100763.28
2022-09-25T03:03:45.629Z,100756.13
2022-09-25T03:06:12.097Z,100763.38
2022-09-25T03:08:39.160Z,100751.06
2022-09-25T03:11:05.860Z,100759.75
2022-09-25T03:13:33.103Z,100765.50
2022-09-25T03:16:00.438Z,100761.88
2022-09-25T03:18:27.167Z,100760.50
2022-09-25T03:20:53.504Z,100753.25
2022-09-25T03:23:19.814Z,100754.75
2022-09-25T03:25:50.155Z,100759.00
2022-09-25T03:28:17.619Z,100750.28
2022-09-25T03:30:44.444Z,100746.16
2022-09-25T03:33:11.151Z,100756.22
2022-09-25T03:35:37.632Z,100738.25
2022-09-25T03:38:04.347Z,100750.47
2022-09-25T03:40:32.620Z,100743.28
2022-09-25T03:42:59.157Z,100747.50
2022-09-25T03:45:25.458Z,100733.16
2022-09-25T03:47:51.766Z,100734.66
2022-09-25T03:50:18.069Z,100739.63
2022-09-25T03:52:44.371Z,100743.28
2022-09-25T03:55:11.910Z,100733.16
2022-09-25T03:57:39.116Z,100730.81
2022-09-25T04:00:06.125Z,100721.44
2022-09-25T04:02:38.662Z,100731.59
2022-09-25T04:05:05.236Z,100725.84
2022-09-25T04:07:32.390Z,100730.81
2022-09-25T04:09:58.686Z,100736.69
2022-09-25T04:12:24.989Z,100730.81
2022-09-25T04:14:51.290Z,100737.31
2022-09-25T04:17:17.617Z,100742.31
2022-09-25T04:19:43.923Z,100741.53
2022-09-25T04:22:10.253Z,100742.94
2022-09-25T04:24:48.971Z,100747.94
2022-09-25T04:27:16.873Z,100748.59
2022-09-25T04:29:43.376Z,100746.56
2022-09-25T04:32:28.495Z,100745.81
2022-09-25T04:34:54.811Z,100748.69
2022-09-25T04:37:26.224Z,100748.69
2022-09-25T04:39:55.855Z,100751.56
2022-09-25T04:42:25.145Z,100748.59
2022-09-25T04:44:52.419Z,100743.59
2022-09-25T04:47:18.862Z,100752.09
2022-09-25T04:49:45.167Z,100744.97
2022-09-25T04:52:15.085Z,100744.25
2022-09-25T04:54:42.115Z,100747.13
2022-09-25T04:57:09.187Z,100747.13
2022-09-25T04:59:35.722Z,100745.63
2022-09-25T05:02:02.109Z,100747.13
2022-09-25T05:04:28.520Z,100751.38
2022-09-25T05:06:54.838Z,100747.22
2022-09-25T05:09:21.145Z,100750.09
2022-09-25T05:11:47.456Z,100740.94
2022-09-25T05:14:13.915Z,100747.41
2022-09-25T05:16:40.331Z,100746.69
2022-09-25T05:19:06.699Z,100747.50
2022-09-25T05:21:33.021Z,100756.97
2022-09-25T05:23:59.331Z,100754.84
2022-09-25T05:26:26.437Z,100751.97
2022-09-25T05:28:52.745Z,100762.72
2022-09-25T05:31:19.080Z,100761.44
2022-09-25T05:33:45.460Z,100756.34
2022-09-25T05:36:12.606Z,100759.22
2022-09-25T05:38:39.345Z,100773.66
2022-09-25T05:41:06.599Z,100767.91
2022-09-25T05:43:32.917Z,100770.06
2022-09-25T05:46:00.085Z,100763.56
2022-09-25T05:48:26.451Z,100754.84
2022-09-25T05:50:55.923Z,100751.97
2022-09-25T05:53:22.361Z,100760.69
2022-09-25T05:55:49.642Z,100755.03
2022-09-25T05:58:15.946Z,100752.16
2022-09-25T06:00:42.553Z,100746.41
2022-09-25T06:03:09.015Z,100754.41
2022-09-25T06:05:35.350Z,100757.91
2022-09-25T06:08:01.728Z,100759.41
2022-09-25T06:10:28.227Z,100759.41
2022-09-25T06:12:58.953Z,100765.88
2022-09-25T06:15:28.537Z,100757.91
2022-09-25T06:17:55.476Z,100755.13
2022-09-25T06:20:22.588Z,100743.53
2022-09-25T06:22:54.942Z,100750.16
2022-09-25T06:25:22.883Z,100755.13
2022-09-25T06:27:51.834Z,100755.03
2022-09-25T06:30:19.953Z,100750.88
2022-09-25T06:32:46.426Z,100753.75
2022-09-25T06:35:12.739Z,100756.63
2022-09-25T06:37:39.079Z,100755.88
2022-09-25T06:40:05.638Z,100753.66
2022-09-25T06:42:35.030Z,100755.13
2022-09-25T06:45:01.669Z,100749.56
2022-09-25T06:47:27.980Z,100756.44
2022-09-25T06:49:54.295Z,100750.47
2022-09-25T06:52:20.605Z,100752.34
2022-09-25T06:54:46.933Z,100755.31
2022-09-25T06:57:13.239Z,100757.56
2022-09-25T06:59:39.578Z,100755.63
2022-09-25T07:02:24.806Z,100754.13
2022-09-25T07:04:51.967Z,100751.25
2022-09-25T07:07:21.259Z,100754.22
2022-09-25T07:09:50.231Z,100757.91
2022-09-25T07:12:18.314Z,100752.94
2022-09-25T07:14:46.832Z,100749.41
2022-09-25T07:17:13.649Z,100755.16
2022-09-25T07:19:40.404Z,100747.34
2022-09-25T07:22:06.901Z,100752.94
2022-09-25T07:24:33.440Z,100757.38
2022-09-25T07:26:59.822Z,100764.44
2022-09-25T07:29:26.233Z,100754.59
2022-09-25T07:31:52.567Z,100751.63
2022-09-25T07:34:18.894Z,100751.72
2022-09-25T07:36:45.284Z,100755.97
2022-09-25T07:39:16.100Z,100757.38
2022-09-25T07:41:43.989Z,100757.38
2022-09-25T07:44:38.809Z,100760.34
2022-09-25T07:46:56.619Z,100760.25
2022-09-25T07:49:22.931Z,100751.63
2022-09-25T07:51:49.266Z,100750.22
2022-09-25T07:54:15.611Z,100750.13
2022-09-25T07:56:41.948Z,100755.88
2022-09-25T07:59:08.294Z,100751.44
2022-09-25T08:01:38.216Z,100752.94
2022-09-25T08:04:07.579Z,100745.06
2022-09-25T08:06:34.246Z,100747.94
2022-09-25T08:09:00.568Z,100743.66
2022-09-25T08:11:28.097Z,100742.91
2022-09-25T08:13:54.444Z,100742.81
2022-09-25T08:16:22.665Z,100742.91
2022-09-25T08:18:49.216Z,100741.44
2022-09-25T08:21:16.638Z,100737.91
2022-09-25T08:23:47.691Z,100732.16
2022-09-25T08:26:14.437Z,100734.19
2022-09-25T08:28:40.794Z,100731.22
2022-09-25T08:31:08.940Z,100735.59
2022-09-25T08:33:35.936Z,100731.97
2022-09-25T08:36:02.539Z,100731.31
2022-09-25T08:38:28.949Z,100732.81
2022-09-25T08:40:56.218Z,100734.28
2022-09-25T08:43:22.762Z,100736.22
2022-09-25T08:46:07.948Z,100744.38
2022-09-25T08:48:58.436Z,100735.69
2022-09-25T08:51:24.741Z,100742.72
2022-09-25T08:53:51.056Z,100737.72
2022-09-25T08:56:20.428Z,100736.88
2022-09-25T08:58:48.081Z,100736.78
2022-09-25T09:01:15.295Z,100738.28
2022-09-25T09:03:46.689Z,100740.50
2022-09-25T09:06:14.314Z,100736.22
2022-09-25T09:08:40.821Z,100732.53
2022-09-25T09:11:11.351Z,100726.88
2022-09-25T09:13:44.472Z,100732.53
2022-09-25T09:16:15.724Z,100732.72
2022-09-25T09:18:42.077Z,100728.44
2022-09-25T09:21:11.580Z,100726.22
2022-09-25T09:23:45.327Z,100727.72
2022-09-25T09:26:21.074Z,100727.06
2022-09-25T09:28:56.422Z,100719.72
2022-09-25T09:31:36.152Z,100726.97
2022-09-25T09:34:18.477Z,100723.44
2022-09-25T09:36:56.690Z,100724.19
2022-09-25T09:39:28.627Z,100717.69
2022-09-25T09:41:58.189Z,100710.47
2022-09-25T09:44:25.374Z,100722.69
2022-09-25T09:46:52.323Z,100716.94
2022-09-25T09:49:33.737Z,100703.22
2022-09-25T09:52:02.143Z,100708.22
2022-09-25T09:54:35.808Z,100703.97
2022-09-25T09:57:03.061Z,100709.72
2022-09-25T09:59:31.402Z,100708.22
2022-09-25T10:02:01.725Z,100705.34
2022-09-25T10:04:30.137Z,100708.72
2022-09-25T10:06:58.894Z,100692.72
2022-09-25T10:09:26.341Z,100699.28
2022-09-25T10:12:03.499Z,100691.84
2022-09-25T10:14:32.317Z,100691.31
2022-09-25T10:16:58.628Z,100695.13
2022-09-25T10:19:25.382Z,100688.16
2022-09-25T10:21:53.026Z,100691.00
2022-09-25T10:24:41.059Z,100690.53
2022-09-25T10:27:19.944Z,100692.09
2022-09-25T10:29:46.295Z,100692.19
2022-09-25T10:32:12.624Z,100690.81
2022-09-25T10:34:40.571Z,100693.69
2022-09-25T10:37:19.638Z,100690.81
2022-09-25T10:39:46.458Z,100686.56
2022-09-25T10:42:33.072Z,100700.19
2022-09-25T10:44:59.428Z,100692.31
2022-09-25T10:47:48.328Z,100698.03
2022-09-25T10:50:24.727Z,100685.81
2022-09-25T10:52:52.865Z,100680.81
2022-09-25T10:55:20.678Z,100689.44
2022-09-25T10:57:47.041Z,100693.78
2022-09-25T11:00:19.653Z,100683.69
2022-09-25T11:02:46.532Z,100690.81
2022-09-25T11:05:16.880Z,100701.00
2022-09-25T11:08:02.367Z,100691.00
2022-09-25T11:10:29.539Z,100686.75
2022-09-25T11:12:56.739Z,100691.72
2022-09-25T11:15:23.650Z,100679.50
2022-09-25T11:17:50.652Z,100681.72
2022-09-25T11:20:17.608Z,100675.97
2022-09-25T11:22:51.842Z,100681.00
2022-09-25T11:25:22.125Z,100675.25
2022-09-25T11:27:53.446Z,100676.72
2022-09-25T11:30:20.160Z,100672.53
2022-09-25T11:32:52.385Z,100663.91
2022-09-25T11:35:34.699Z,100658.94
2022-09-25T11:38:17.523Z,100654.66
2022-09-25T11:41:07.867Z,100652.50
2022-09-25T11:43:39.412Z,100645.38
2022-09-25T11:46:24.667Z,100653.34
2022-09-25T11:48:54.574Z,100644.06
2022-09-25T11:51:29.055Z,100646.84
2022-09-25T11:54:32.688Z,100634.06
2022-09-25T11:57:04.695Z,100638.31
2022-09-25T11:59:49.835Z,100636.94
2022-09-25T12:02:21.542Z,100639.88
2022-09-25T12:04:59.095Z,100629.78
2022-09-25T12:07:33.382Z,100633.50
2022-09-25T12:10:06.754Z,100627.75
2022-09-25T12:12:52.005Z,100626.38
2022-09-25T12:15:25.424Z,100622.81
2022-09-25T12:17:57.920Z,100631.44
2022-09-25T12:20:42.903Z,100633.09
2022-09-25T12:23:13.353Z,100627.94
2022-09-25T12:25:58.304Z,100623.66
2022-09-25T12:28:39.977Z,100628.66
2022-09-25T12:31:13.689Z,100624.56
2022-09-25T12:33:49.545Z,100615.47
2022-09-25T12:36:26.042Z,100604.25
2022-09-25T12:38:55.465Z,100615.00
2022-09-25T12:41:34.363Z,100607.91
2022-09-25T12:44:02.178Z,100607.69
2022-09-25T12:46:37.713Z,100608.34
2022-09-25T12:49:14.227Z,100613.50
2022-09-25T12:51:41.543Z,100607.34
2022-09-25T12:54:15.707Z,100608.34
2022-09-25T12:56:43.844Z,100609.50
2022-09-25T12:59:11.846Z,100598.56
2022-09-25T13:01:47.447Z,100605.72
2022-09-25T13:04:18.454Z,100601.72
2022-09-25T13:06:50.129Z,100587.28
2022-09-25T13:09:30.446Z,100572.56
2022-09-25T13:12:01.830Z,100590.66
2022-09-25T13:14:42.542Z,100591.78
2022-09-25T13:17:10.575Z,100594.94
2022-09-25T13:19:36.913Z,100595.25
2022-09-25T13:22:06.319Z,100592.72
2022-09-25T13:24:39.689Z,100596.22
2022-09-25T13:27:06.492Z,100596.66
2022-09-25T13:29:35.537Z,100581.81
2022-09-25T13:32:02.392Z,100585.34
2022-09-25T13:34:28.729Z,100586.69
2022-09-25T13:36:57.768Z,100583.03
2022-09-25T13:39:46.237Z,100587.66
2022-09-25T13:42:14.080Z,100575.72
2022-09-25T13:44:43.560Z,100578.31
2022-09-25T13:47:30.047Z,100578.97
2022-09-25T13:50:11.556Z,100581.31
2022-09-25T13:52:40.645Z,100573.69
2022-09-25T13:55:13.152Z,100564.28
2022-09-25T13:58:01.758Z,100577.34
2022-09-25T14:00:33.647Z,100572.75
2022-09-25T14:03:03.121Z,100568.31
2022-09-25T14:05:36.002Z,100564.03
2022-09-25T14:08:03.510Z,100571.84
2022-09-25T14:10:29.818Z,100572.53
2022-09-25T14:12:56.145Z,100558.41
2022-09-25T14:15:23.906Z,100562.25
2022-09-25T14:17:50.840Z,100563.81
2022-09-25T14:20:23.462Z,100557.81
2022-09-25T14:22:53.259Z,100562.41
2022-09-25T14:25:33.121Z,100561.78
2022-09-25T14:28:00.672Z,100543.28
2022-09-25T14:30:30.023Z,100547.13
2022-09-25T14:33:14.020Z,100547.38
2022-09-25T14:35:47.610Z,100541.31
2022-09-25T14:38:13.884Z,100536.88
2022-09-25T14:40:40.886Z,100540.34
2022-09-25T14:43:11.082Z,100535.91
2022-09-25T14:45:40.532Z,100535.06
2022-09-25T14:48:09.481Z,100530.66
2022-09-25T14:50:36.643Z,100534.91
2022-09-25T14:53:04.744Z,100535.00
2022-09-25T14:55:33.521Z,100532.03
2022-09-25T14:58:01.343Z,100526.22
2022-09-25T15:00:28.333Z,100526.22
2022-09-25T15:02:55.187Z,100523.19
2022-09-25T15:05:21.465Z,100521.69
2022-09-25T15:07:47.857Z,100523.25
2022-09-25T15:10:49.605Z,100524.56
2022-09-25T15:13:15.999Z,100523.09
2022-09-25T15:16:02.430Z,100517.91
2022-09-25T15:18:28.818Z,100530.00
2022-09-25T15:20:55.344Z,100521.09
2022-09-25T15:23:21.677Z,100535.56
2022-09-25T15:25:52.746Z,100528.31
2022-09-25T15:28:19.785Z,100519.63
2022-09-25T15:30:46.392Z,100525.28
2022-09-25T15:33:29.189Z,100520.38
2022-09-25T15:35:56.167Z,100526.75
2022-09-25T15:38:29.485Z,100518.22
2022-09-25T15:40:55.918Z,100516.66
2022-09-25T15:43:22.355Z,100507.38
2022-09-25T15:46:07.121Z,100519.63
2022-09-25T15:48:40.201Z,100508.84
2022-09-25T15:51:18.479Z,100503.84
2022-09-25T15:53:49.178Z,100508.69
2022-09-25T15:56:18.201Z,100512.22
2022-09-25T15:58:46.291Z,100506.47
2022-09-25T16:01:31.836Z,100497.91
2022-09-25T16:04:17.137Z,100505.81
2022-09-25T16:06:43.701Z,100512.22
2022-09-25T16:09:23.467Z,100507.78
2022-09-25T16:11:49.775Z,100496.19
2022-09-25T16:14:21.975Z,100493.31
2022-09-25T16:16:49.749Z,100492.59
2022-09-25T16:19:24.882Z,100490.53
2022-09-25T16:21:51.196Z,100493.31
2022-09-25T16:24:18.162Z,100494.06
2022-09-25T16:26:44.511Z,100493.31
2022-09-25T16:29:16.506Z,100497.59
2022-09-25T16:31:43.350Z,100501.13
2022-09-25T16:34:29.235Z,100509.03
2022-09-25T16:36:57.642Z,100500.41
2022-09-25T16:39:24.863Z,100507.53
2022-09-25T16:41:51.305Z,100511.81
2022-09-25T16:44:18.860Z,100514.78
2022-09-25T16:46:52.064Z,100516.41
2022-09-25T16:49:19.989Z,100509.13
2022-09-25T16:51:46.310Z,100518.66
2022-09-25T16:54:13.868Z,100506.25
2022-09-25T16:56:42.115Z,100512.06
2022-09-25T16:59:17.366Z,100513.38
2022-09-25T17:01:43.817Z,100497.44
2022-09-25T17:04:10.686Z,100500.22
2022-09-25T17:06:40.733Z,100504.50
2022-09-25T17:09:13.618Z,100491.59
2022-09-25T17:11:40.475Z,100488.72
2022-09-25T17:14:06.817Z,100481.66
2022-09-25T17:16:33.988Z,100486.75
2022-09-25T17:19:06.621Z,100486.09
2022-09-25T17:21:34.006Z,100483.88
2022-09-25T17:24:00.331Z,100487.56
2022-09-25T17:26:26.658Z,100491.84
2022-09-25T17:28:52.963Z,100492.00
2022-09-25T17:31:20.187Z,100493.50
2022-09-25T17:33:52.601Z,100495.56
2022-09-25T17:36:18.955Z,100492.50
2022-09-25T17:38:45.301Z,100500.41
2022-09-25T17:41:16.319Z,100503.28
2022-09-25T17:43:43.076Z,100498.34
2022-09-25T17:46:09.455Z,100503.34
2022-09-25T17:48:35.797Z,100509.13
2022-09-25T17:51:18.456Z,100496.13
2022-09-25T17:53:44.830Z,100503.94
2022-09-25T17:56:11.264Z,100508.94
2022-09-25T17:58:37.581Z,100501.94
2022-09-25T18:01:06.615Z,100515.50
2022-09-25T18:03:32.977Z,100505.63
2022-09-25T18:05:59.299Z,100510.06
2022-09-25T18:08:25.599Z,100512.03
2022-09-25T18:10:53.174Z,100506.59
2022-09-25T18:13:20.163Z,100500.78
2022-09-25T18:15:47.654Z,100503.19
2022-09-25T18:18:14.019Z,100490.38
2022-09-25T18:20:59.026Z,100500.56
2022-09-25T18:23:25.353Z,100504.81
2022-09-25T18:25:51.694Z,100500.63
2022-09-25T18:28:18.043Z,100491.25
2022-09-25T18:30:44.416Z,100497.03
2022-09-25T18:33:10.783Z,100497.75
2022-09-25T18:35:37.117Z,100490.53
2022-09-25T18:38:03.499Z,100491.25
2022-09-25T18:40:29.846Z,100496.28
2022-09-25T18:42:56.217Z,100486.25
2022-09-25T18:45:22.529Z,100494.81
2022-09-25T18:47:48.855Z,100498.16
2022-09-25T18:50:20.514Z,100504.81
2022-09-25T18:52:48.434Z,100509.13
2022-09-25T18:55:14.739Z,100497.69
2022-09-25T18:57:42.613Z,100506.31
2022-09-25T19:00:09.063Z,100495.56
2022-09-25T19:02:38.840Z,100509.94
2022-09-25T19:05:05.841Z,100496.28
2022-09-25T19:07:32.171Z,100491.94
2022-09-25T19:10:01.361Z,100495.47
2022-09-25T19:12:27.696Z,100489.78
2022-09-25T19:14:54.014Z,100493.25
2022-09-25T19:17:20.361Z,100484.69
2022-09-25T19:19:46.665Z,100490.38
2022-09-25T19:22:17.768Z,100504.00
2022-09-25T19:24:45.948Z,100490.38
2022-09-25T19:27:12.632Z,100493.25
2022-09-25T19:29:38.957Z,100492.59
2022-09-25T19:32:05.694Z,100488.91
2022-09-25T19:34:32.029Z,100486.03
2022-09-25T19:36:58.533Z,100490.38
2022-09-25T19:39:24.850Z,100477.41
2022-09-25T19:41:51.235Z,100481.72
2022-09-25T19:44:18.260Z,100483.16
2022-09-25T19:46:45.148Z,100481.00
2022-09-25T19:49:12.055Z,100472.28
2022-09-25T19:51:38.558Z,100473.69
2022-09-25T19:54:05.381Z,100478.84
2022-09-25T19:56:31.807Z,100475.25
2022-09-25T19:58:58.241Z,100480.34
2022-09-25T20:01:27.459Z,100473.09
2022-09-25T20:03:55.648Z,100477.41
2022-09-25T20:06:22.127Z,100465.00
2022-09-25T20:08:48.653Z,100472.28
2022-09-25T20:11:16.666Z,100469.34
2022-09-25T20:13:43.068Z,100470.16
2022-09-25T20:16:09.916Z,100470.16
2022-09-25T20:18:36.330Z,100472.94
2022-09-25T20:21:03.388Z,100474.44
2022-09-25T20:23:29.707Z,100472.22
2022-09-25T20:26:06.021Z,100465.72
2022-09-25T20:28:32.350Z,100465.00
2022-09-25T20:31:02.458Z,100459.97
2022-09-25T20:33:32.477Z,100468.69
2022-09-25T20:36:01.351Z,100458.56
2022-09-25T20:38:27.714Z,100462.94
2022-09-25T20:40:54.102Z,100465.16
2022-09-25T20:43:21.522Z,100465.88
2022-09-25T20:45:55.578Z,100467.34
2022-09-25T20:48:21.952Z,100464.47
2022-09-25T20:50:51.546Z,100461.59
2022-09-25T20:53:17.891Z,100460.13
2022-09-25T20:55:44.239Z,100451.50
2022-09-25T20:58:10.550Z,100448.63
2022-09-25T21:00:36.870Z,100455.13
2022-09-25T21:03:03.980Z,100449.38
2022-09-25T21:05:30.319Z,100449.38
2022-09-25T21:07:56.631Z,100455.13
2022-09-25T21:10:23.351Z,100451.50
2022-09-25T21:12:49.671Z,100455.69
2022-09-25T21:15:15.998Z,100448.56
2022-09-25T21:17:42.320Z,100439.94
2022-09-25T21:20:08.869Z,100439.94
2022-09-25T21:22:35.837Z,100439.94
2022-09-25T21:25:02.177Z,100439.94
2022-09-25T21:27:29.494Z,100436.41
2022-09-25T21:29:55.832Z,100436.41
2022-09-25T21:32:22.157Z,100441.38
2022-09-25T21:34:48.518Z,100435.63
2022-09-25T21:37:14.833Z,100434.09
2022-09-25T21:39:41.159Z,100434.19
2022-09-25T21:42:07.480Z,100422.69
2022-09-25T21:44:33.806Z,100418.97
2022-09-25T21:47:00.487Z,100421.19
2022-09-25T21:49:26.895Z,100418.25
2022-09-25T21:51:53.240Z,100417.56
2022-09-25T21:54:19.564Z,100417.56
2022-09-25T21:56:45.903Z,100419.63
2022-09-25T21:59:12.500Z,100418.09
2022-09-25T22:01:39.948Z,100418.25
2022-09-25T22:04:06.779Z,100416.03
2022-09-25T22:06:34.082Z,100418.16
2022-09-25T22:09:01.273Z,100417.50
2022-09-25T22:11:27.583Z,100417.50
2022-09-25T22:13:54.489Z,100421.03
2022-09-25T22:16:21.582Z,100409.53
2022-09-25T22:18:51.638Z,100417.41
2022-09-25T22:21:18.745Z,100416.66
2022-09-25T22:23:45.050Z,100414.53
2022-09-25T22:26:11.663Z,100417.34
2022-09-25T22:28:38.050Z,100414.53
2022-09-25T22:31:09.640Z,100412.97
2022-09-25T22:33:36.034Z,100413.72
2022-09-25T22:36:02.671Z,100415.13
2022-09-25T22:38:29.238Z,100407.22
2022-09-25T22:40:55.727Z,100400.75
2022-09-25T22:43:22.147Z,100402.22
2022-09-25T22:45:49.237Z,100399.34
2022-09-25T22:48:15.606Z,100404.34
2022-09-25T22:50:54.810Z,100407.75
2022-09-25T22:53:21.724Z,100411.34
2022-09-25T22:55:48.077Z,100408.47
2022-09-25T22:58:14.703Z,100395.47
2022-09-25T23:00:42.808Z,100396.25
2022-09-25T23:03:09.523Z,100399.78
2022-09-25T23:05:36.865Z,100396.25
2022-09-25T23:08:03.251Z,100400.50
2022-09-25T23:10:48.693Z,100399.03
2022-09-25T23:13:15.877Z,100397.63
2022-09-25T23:15:42.204Z,100389.72
2022-09-25T23:18:08.539Z,100399.03
2022-09-25T23:20:34.853Z,100390.41
2022-09-25T23:23:03.419Z,100389.69
2022-09-25T23:25:32.496Z,100381.78
2022-09-25T23:27:59.699Z,100386.81
2022-09-25T23:30:26.107Z,100385.31
2022-09-25T23:32:55.540Z,100384.66
2022-09-25T23:35:21.875Z,100391.78
2022-09-25T23:37:48.201Z,100386.72
2022-09-25T23:40:15.830Z,100388.91
2022-09-25T23:42:43.289Z,100388.84
2022-09-25T23:45:10.007Z,100380.28
2022-09-25T23:47:36.335Z,100386.03
2022-09-25T23:50:04.839Z,100376.69
2022-09-25T23:52:31.403Z,100373.06
2022-09-25T23:54:58.463Z,100371.59
2022-09-25T23:57:24.795Z,100368.06
2022-09-25T23:59:51.150Z,100368.72
